createdAt,value
2022-08-12T00:00:40.067Z,94.20
2022-08-12T00:03:25.900Z,94.20
2022-08-12T00:06:11.921Z,94.40
2022-08-12T00:08:57.971Z,94.50
2022-08-12T00:11:45.064Z,94.70
2022-08-12T00:14:32.434Z,94.80
2022-08-12T00:17:19.328Z,94.70
2022-08-12T00:23:45.216Z,95.00
2022-08-12T00:26:33.709Z,95.00
2022-08-12T00:29:19.605Z,95.20
2022-08-12T00:32:06.851Z,95.20
2022-08-12T00:34:57.987Z,95.50
2022-08-12T00:37:44.020Z,95.60
2022-08-12T00:40:32.230Z,95.60
2022-08-12T00:43:01.269Z,96.00
2022-08-12T00:45:50.428Z,96.00
2022-08-12T00:48:21.105Z,96.10
2022-08-12T00:50:53.428Z,96.00
2022-08-12T00:53:22.772Z,96.10
2022-08-12T00:55:53.235Z,95.90
2022-08-12T00:58:27.479Z,95.50
2022-08-12T01:01:02.163Z,95.70
2022-08-12T01:03:55.270Z,95.80
2022-08-12T01:06:41.839Z,95.60
2022-08-12T01:09:28.355Z,95.90
2022-08-12T01:11:56.975Z,95.90
2022-08-12T01:14:25.578Z,95.80
2022-08-12T01:16:55.346Z,96.10
2022-08-12T01:19:26.085Z,96.10
2022-08-12T01:22:22.569Z,96.40
2022-08-12T01:24:58.496Z,96.40
2022-08-12T01:27:28.680Z,96.70
2022-08-12T01:29:58.869Z,96.40
2022-08-12T01:32:29.663Z,96.40
2022-08-12T01:35:04.368Z,96.50
2022-08-12T01:37:36.768Z,96.60
2022-08-12T01:40:33.384Z,96.70
2022-08-12T01:43:01.291Z,96.70
2022-08-12T01:45:43.191Z,97.00
2022-08-12T01:48:20.557Z,97.10
2022-08-12T01:51:06.555Z,96.80
2022-08-12T01:53:51.065Z,97.10
2022-08-12T01:56:25.615Z,97.20
2022-08-12T01:59:15.953Z,97.00
2022-08-12T02:01:46.368Z,97.30
2022-08-12T02:04:46.485Z,97.40
2022-08-12T02:07:51.893Z,97.30
2022-08-12T02:10:50.111Z,97.20
2022-08-12T02:13:48.467Z,97.20
2022-08-12T02:16:27.983Z,97.50
2022-08-12T02:19:22.875Z,97.50
2022-08-12T02:22:13.920Z,97.50
2022-08-12T02:24:45.419Z,97.60
2022-08-12T02:27:16.426Z,97.80
2022-08-12T02:29:47.602Z,97.90
2022-08-12T02:32:16.331Z,98.00
2022-08-12T02:34:45.921Z,97.80
2022-08-12T02:37:16.921Z,97.50
2022-08-12T02:39:50.849Z,97.50
2022-08-12T02:42:23.543Z,98.00
2022-08-12T02:44:56.666Z,98.00
2022-08-12T02:47:59.736Z,98.00
2022-08-12T02:50:20.502Z,97.90
2022-08-12T02:52:52.414Z,98.10
2022-08-12T02:55:28.789Z,98.20
2022-08-12T02:58:12.665Z,98.40
2022-08-12T03:00:46.049Z,98.40
2022-08-12T03:03:15.942Z,98.30
2022-08-12T03:05:52.463Z,98.30
2022-08-12T03:08:32.229Z,98.60
2022-08-12T03:11:07.884Z,98.40
2022-08-12T03:13:48.823Z,98.50
2022-08-12T03:16:20.735Z,98.70
2022-08-12T03:18:51.282Z,98.70
2022-08-12T03:21:55.533Z,98.70
2022-08-12T03:24:12.750Z,98.80
2022-08-12T03:26:44.505Z,99.10
2022-08-12T03:29:14.502Z,99.00
2022-08-12T03:31:44.861Z,99.10
2022-08-12T03:34:13.526Z,99.30
2022-08-12T03:36:43.048Z,99.30
2022-08-12T03:39:36.992Z,99.40
2022-08-12T03:42:21.925Z,99.70
2022-08-12T03:45:15.876Z,99.90
2022-08-12T03:48:11.223Z,99.80
2022-08-12T03:51:05.695Z,99.60
2022-08-12T03:53:52.526Z,99.80
2022-08-12T03:56:39.116Z,99.90
2022-08-12T03:59:26.595Z,99.90
2022-08-12T04:01:58.425Z,99.90
2022-08-12T04:04:34.210Z,99.90
2022-08-12T04:07:03.918Z,99.90
2022-08-12T04:09:33.367Z,99.90
2022-08-12T04:12:19.493Z,99.90
2022-08-12T04:14:48.701Z,99.90
2022-08-12T04:17:17.995Z,99.90
2022-08-12T04:19:48.394Z,99.90
2022-08-12T04:22:17.197Z,99.90
2022-08-12T04:24:50.723Z,99.90
2022-08-12T04:27:19.743Z,99.90
2022-08-12T04:30:32.062Z,99.90
2022-08-12T04:32:42.301Z,99.90
2022-08-12T04:35:14.345Z,99.90
2022-08-12T04:37:59.157Z,99.90
2022-08-12T04:40:31.435Z,99.90
2022-08-12T04:43:02.092Z,99.90
2022-08-12T04:45:31.461Z,99.90
2022-08-12T04:48:01.958Z,99.90
2022-08-12T04:50:35.938Z,99.90
2022-08-12T04:53:06.557Z,99.90
2022-08-12T04:55:35.857Z,99.90
2022-08-12T04:58:04.394Z,99.90
2022-08-12T05:00:33.086Z,99.90
2022-08-12T05:03:01.840Z,99.90
2022-08-12T05:05:36.059Z,99.90
2022-08-12T05:08:07.000Z,99.90
2022-08-12T05:10:36.146Z,99.90
2022-08-12T05:13:11.114Z,99.90
2022-08-12T05:16:05.021Z,99.90
2022-08-12T05:18:29.749Z,99.90
2022-08-12T05:21:49.384Z,99.90
2022-08-12T05:24:19.317Z,99.90
2022-08-12T05:26:47.811Z,99.90
2022-08-12T05:30:05.743Z,99.90
2022-08-12T05:32:06.541Z,99.90
2022-08-12T05:34:35.147Z,99.90
2022-08-12T05:37:04.342Z,99.90
2022-08-12T05:39:35.241Z,99.90
2022-08-12T05:42:04.356Z,99.90
2022-08-12T05:44:32.788Z,99.90
2022-08-12T05:47:01.359Z,99.90
2022-08-12T05:49:29.927Z,99.90
2022-08-12T05:51:58.845Z,99.90
2022-08-12T05:54:47.616Z,99.90
2022-08-12T05:57:17.397Z,99.90
2022-08-12T05:59:45.828Z,99.90
2022-08-12T06:02:14.373Z,99.90
2022-08-12T06:04:43.244Z,99.90
2022-08-12T06:07:59.256Z,99.90
2022-08-12T06:10:00.924Z,99.90
2022-08-12T06:12:32.570Z,99.90
2022-08-12T06:41:07.317Z,99.90
2022-08-12T06:44:05.753Z,99.90
2022-08-12T06:46:31.615Z,99.90
2022-08-12T06:49:00.596Z,99.90
2022-08-12T06:51:30.281Z,99.90
2022-08-12T06:53:59.637Z,99.90
2022-08-12T06:57:01.801Z,99.90
2022-08-12T06:59:21.269Z,99.90
2022-08-12T07:01:51.681Z,99.90
2022-08-12T07:04:38.217Z,99.90
2022-08-12T07:07:08.433Z,99.90
2022-08-12T07:10:04.156Z,99.90
2022-08-12T07:12:36.538Z,99.90
2022-08-12T07:15:05.776Z,99.90
2022-08-12T07:17:37.740Z,99.10
2022-08-12T07:20:09.846Z,97.60
2022-08-12T07:22:39.869Z,97.40
2022-08-12T07:25:26.569Z,97.10
2022-08-12T07:27:58.317Z,95.80
2022-08-12T07:30:26.737Z,94.30
2022-08-12T07:32:59.849Z,93.40
2022-08-12T07:35:30.403Z,92.70
2022-08-12T07:37:59.853Z,92.30
2022-08-12T07:40:29.668Z,91.90
2022-08-12T07:42:59.791Z,91.80
2022-08-12T07:45:28.222Z,90.50
2022-08-12T07:47:56.481Z,90.20
2022-08-12T07:50:24.901Z,90.00
2022-08-12T07:52:53.195Z,87.90
2022-08-12T07:55:21.493Z,89.40
2022-08-12T07:57:55.992Z,86.80
2022-08-12T08:00:27.178Z,85.70
2022-08-12T08:02:55.848Z,85.10
2022-08-12T08:05:26.021Z,83.90
2022-08-12T08:07:57.527Z,83.30
2022-08-12T08:10:26.290Z,82.90
2022-08-12T08:12:53.632Z,80.70
2022-08-12T08:15:38.553Z,80.80
2022-08-12T08:18:26.005Z,80.70
2022-08-12T08:20:57.675Z,80.30
2022-08-12T08:23:56.275Z,79.00
2022-08-12T08:26:27.427Z,79.30
2022-08-12T08:28:55.724Z,78.30
2022-08-12T08:31:24.001Z,78.70
2022-08-12T08:34:09.214Z,77.10
2022-08-12T08:36:43.934Z,76.80
2022-08-12T08:39:17.022Z,76.20
2022-08-12T08:42:16.430Z,75.50
2022-08-12T08:44:46.553Z,73.70
2022-08-12T08:47:18.152Z,73.10
2022-08-12T08:49:47.781Z,71.70
2022-08-12T08:52:35.265Z,72.60
2022-08-12T08:55:04.529Z,71.60
2022-08-12T08:57:43.917Z,71.20
2022-08-12T09:00:15.821Z,72.00
2022-08-12T09:02:49.108Z,70.60
2022-08-12T09:05:25.366Z,71.10
2022-08-12T09:08:08.998Z,70.70
2022-08-12T09:10:44.926Z,69.50
2022-08-12T09:14:10.906Z,70.10
2022-08-12T09:16:25.571Z,68.80
2022-08-12T09:18:53.821Z,67.90
2022-08-12T09:21:24.099Z,67.80
2022-08-12T09:26:48.311Z,65.40
2022-08-12T09:29:20.279Z,66.50
2022-08-12T09:32:11.563Z,64.70
2022-08-12T09:34:57.836Z,64.90
2022-08-12T09:37:28.358Z,64.60
2022-08-12T09:40:57.147Z,63.40
2022-08-12T09:43:24.967Z,64.10
2022-08-12T09:46:19.320Z,63.20
2022-08-12T09:48:44.852Z,64.20
2022-08-12T09:51:37.826Z,64.10
2022-08-12T09:54:34.215Z,62.90
2022-08-12T09:58:07.624Z,62.50
2022-08-12T10:00:16.041Z,61.60
2022-08-12T10:03:05.790Z,61.70
2022-08-12T10:06:27.037Z,62.80
2022-08-12T10:08:30.850Z,62.10
2022-08-12T10:11:20.618Z,61.30
2022-08-12T10:13:52.629Z,60.60
2022-08-12T10:16:23.044Z,61.20
2022-08-12T10:18:53.829Z,60.20
2022-08-12T10:21:36.456Z,60.50
2022-08-12T10:24:07.187Z,61.40
2022-08-12T10:26:56.304Z,61.90
2022-08-12T10:30:02.815Z,62.40
2022-08-12T10:32:44.879Z,61.60
2022-08-12T10:35:16.355Z,60.60
2022-08-12T10:38:33.217Z,61.50
2022-08-12T10:40:57.522Z,59.80
2022-08-12T10:43:54.914Z,59.50
2022-08-12T10:46:31.129Z,59.80
2022-08-12T10:49:06.499Z,59.40
2022-08-12T10:52:05.188Z,58.30
2022-08-12T10:54:41.430Z,60.40
2022-08-12T10:57:18.423Z,59.10
2022-08-12T11:00:35.943Z,60.10
2022-08-12T11:04:23.366Z,59.20
2022-08-12T11:07:09.934Z,60.00
2022-08-12T11:08:43.246Z,59.50
2022-08-12T11:11:17.788Z,59.60
2022-08-12T11:14:06.813Z,59.00
2022-08-12T11:17:34.242Z,60.40
2022-08-12T11:19:46.602Z,60.50
2022-08-12T11:22:16.301Z,58.60
2022-08-12T11:24:51.127Z,59.40
2022-08-12T11:27:20.233Z,58.80
2022-08-12T11:30:02.183Z,59.40
2022-08-12T11:32:39.236Z,59.50
2022-08-12T11:35:09.205Z,59.10
2022-08-12T11:37:58.337Z,59.10
2022-08-12T11:40:28.463Z,59.30
2022-08-12T11:43:17.132Z,59.60
2022-08-12T11:45:47.133Z,58.20
2022-08-12T11:48:51.459Z,59.10
2022-08-12T11:51:57.508Z,58.80
2022-08-12T11:54:50.821Z,60.20
2022-08-12T11:58:44.108Z,59.30
2022-08-12T12:03:54.812Z,59.20
2022-08-12T12:06:43.134Z,58.20
2022-08-12T12:09:52.608Z,58.90
2022-08-12T12:12:56.598Z,58.70
2022-08-12T12:16:42.073Z,60.30
2022-08-12T12:19:46.606Z,60.00
2022-08-12T12:22:32.390Z,59.20
2022-08-12T12:25:59.422Z,58.90
2022-08-12T12:28:37.850Z,59.00
2022-08-12T12:32:08.913Z,60.30
2022-08-12T12:34:30.326Z,59.30
2022-08-12T12:38:04.553Z,60.20
2022-08-12T12:44:25.786Z,60.70
2022-08-12T12:47:29.181Z,61.10
2022-08-12T12:50:11.610Z,61.60
2022-08-12T12:53:01.841Z,60.90
2022-08-12T12:55:36.053Z,60.90
2022-08-12T12:58:05.638Z,61.50
2022-08-12T13:00:35.181Z,62.30
2022-08-12T13:03:03.865Z,61.40
2022-08-12T13:05:42.312Z,61.80
2022-08-12T13:08:28.549Z,62.30
2022-08-12T13:11:06.753Z,62.10
2022-08-12T13:14:07.992Z,62.40
2022-08-12T13:16:29.346Z,62.60
2022-08-12T13:18:58.676Z,63.80
2022-08-12T13:21:36.682Z,62.90
2022-08-12T13:24:09.741Z,63.00
2022-08-12T13:26:40.757Z,63.60
2022-08-12T13:29:12.962Z,62.30
2022-08-12T13:31:46.603Z,62.10
2022-08-12T13:34:42.160Z,62.60
2022-08-12T13:37:43.914Z,62.10
2022-08-12T13:40:28.317Z,62.80
2022-08-12T13:43:01.765Z,63.10
2022-08-12T13:45:31.961Z,63.90
2022-08-12T13:48:05.293Z,62.50
2022-08-12T13:50:36.445Z,63.40
2022-08-12T13:53:24.856Z,63.20
2022-08-12T13:56:01.878Z,64.50
2022-08-12T13:58:40.713Z,64.20
2022-08-12T14:01:11.810Z,65.50
2022-08-12T14:03:50.965Z,65.10
2022-08-12T14:06:30.405Z,64.60
2022-08-12T14:09:00.955Z,64.70
2022-08-12T14:11:59.523Z,65.00
2022-08-12T14:14:31.497Z,65.50
2022-08-12T14:17:05.482Z,65.60
2022-08-12T14:19:48.614Z,66.10
2022-08-12T14:22:25.927Z,66.20
2022-08-12T14:24:55.596Z,64.80
2022-08-12T14:28:02.483Z,64.60
2022-08-12T14:30:32.659Z,64.90
2022-08-12T14:33:03.382Z,65.10
2022-08-12T14:35:41.030Z,65.90
2022-08-12T14:38:26.150Z,65.50
2022-08-12T14:40:57.613Z,65.90
2022-08-12T14:43:31.425Z,64.60
2022-08-12T14:46:00.390Z,64.80
2022-08-12T14:48:30.501Z,65.40
2022-08-12T14:52:10.527Z,65.50
2022-08-12T14:55:10.857Z,65.00
2022-08-12T14:59:57.617Z,64.90
2022-08-12T15:02:28.608Z,64.80
2022-08-12T15:04:58.993Z,65.00
2022-08-12T15:07:43.605Z,65.30
2022-08-12T15:10:31.778Z,64.90
2022-08-12T15:13:07.446Z,64.60
2022-08-12T15:15:44.157Z,64.60
2022-08-12T15:18:21.163Z,64.50
2022-08-12T15:20:51.056Z,64.50
2022-08-12T15:23:21.333Z,63.70
2022-08-12T15:25:59.713Z,64.80
2022-08-12T15:28:34.006Z,63.70
2022-08-12T15:31:21.327Z,64.40
2022-08-12T15:33:57.420Z,64.20
2022-08-12T15:36:53.858Z,64.90
2022-08-12T15:39:16.860Z,64.50
2022-08-12T15:41:49.219Z,64.70
2022-08-12T15:44:37.762Z,64.70
2022-08-12T15:47:09.138Z,64.50
2022-08-12T15:49:54.281Z,65.30
2022-08-12T15:52:27.476Z,65.30
2022-08-12T15:54:58.741Z,65.90
2022-08-12T15:57:28.192Z,66.40
2022-08-12T16:00:07.493Z,66.00
2022-08-12T16:02:53.210Z,67.20
2022-08-12T16:06:11.810Z,66.90
2022-08-12T16:08:18.681Z,67.30
2022-08-12T16:10:53.062Z,66.70
2022-08-12T16:13:32.342Z,68.70
2022-08-12T16:16:04.036Z,69.70
2022-08-12T16:18:44.809Z,70.30
2022-08-12T16:21:51.556Z,70.80
2022-08-12T16:24:26.496Z,71.60
2022-08-12T16:26:55.455Z,71.80
2022-08-12T16:29:49.371Z,72.00
2022-08-12T16:32:24.013Z,71.60
2022-08-12T16:34:57.708Z,71.60
2022-08-12T16:38:24.131Z,72.90
2022-08-12T16:40:19.862Z,73.00
2022-08-12T16:42:53.706Z,73.00
2022-08-12T16:46:07.988Z,73.20
2022-08-12T16:48:35.055Z,73.60
2022-08-12T16:51:12.555Z,74.20
2022-08-12T16:53:44.158Z,73.90
2022-08-12T16:56:15.893Z,74.00
2022-08-12T16:58:47.076Z,74.90
2022-08-12T17:01:16.444Z,74.00
2022-08-12T17:04:08.573Z,73.80
2022-08-12T17:06:43.453Z,73.80
2022-08-12T17:09:17.294Z,74.60
2022-08-12T17:11:49.510Z,74.70
2022-08-12T17:14:23.074Z,75.70
2022-08-12T17:16:58.828Z,75.60
2022-08-12T17:20:28.809Z,76.20
2022-08-12T17:22:43.157Z,75.90
2022-08-12T17:25:14.809Z,76.00
2022-08-12T17:27:46.393Z,76.00
2022-08-12T17:30:27.548Z,76.40
2022-08-12T17:32:56.561Z,77.00
2022-08-12T17:35:37.055Z,77.60
2022-08-12T17:38:18.738Z,77.90
2022-08-12T17:40:48.578Z,78.30
2022-08-12T17:43:56.180Z,78.90
2022-08-12T17:46:12.837Z,78.50
2022-08-12T17:48:54.832Z,79.70
2022-08-12T17:51:25.203Z,80.10
2022-08-12T17:54:10.293Z,80.70
2022-08-12T17:56:42.954Z,80.90
2022-08-12T17:59:13.108Z,81.40
2022-08-12T18:01:45.387Z,81.70
2022-08-12T18:04:21.804Z,81.70
2022-08-12T18:06:52.750Z,81.90
2022-08-12T18:09:32.182Z,82.50
2022-08-12T18:12:26.819Z,82.90
2022-08-12T18:14:58.588Z,82.30
2022-08-12T18:17:28.023Z,81.50
2022-08-12T18:20:06.501Z,81.00
2022-08-12T18:23:03.319Z,80.70
2022-08-12T18:26:12.691Z,80.70
2022-08-12T18:28:43.212Z,80.60
2022-08-12T18:31:14.296Z,80.30
2022-08-12T18:33:46.195Z,80.80
2022-08-12T18:36:22.049Z,80.50
2022-08-12T18:38:56.223Z,81.10
2022-08-12T18:41:33.580Z,81.60
2022-08-12T18:44:07.811Z,82.20
2022-08-12T18:46:54.218Z,82.50
2022-08-12T18:49:31.623Z,83.20
2022-08-12T18:52:04.351Z,83.20
2022-08-12T18:54:36.093Z,83.70
2022-08-12T18:57:16.490Z,83.90
2022-08-12T18:59:59.935Z,84.30
2022-08-12T19:02:36.076Z,84.60
2022-08-12T19:11:28.554Z,85.20
2022-08-12T19:14:18.753Z,85.90
2022-08-12T19:16:52.681Z,86.00
2022-08-12T19:19:21.658Z,86.00
2022-08-12T19:22:28.842Z,86.60
2022-08-12T19:25:16.864Z,87.30
2022-08-12T19:27:50.876Z,87.30
2022-08-12T19:30:45.363Z,87.60
2022-08-12T19:33:15.476Z,87.90
2022-08-12T19:36:07.931Z,88.20
2022-08-12T19:38:33.325Z,88.40
2022-08-12T19:41:05.496Z,88.60
2022-08-12T19:43:59.291Z,89.00
2022-08-12T19:46:35.591Z,89.10
2022-08-12T19:49:05.330Z,89.40
2022-08-12T19:51:39.281Z,89.60
2022-08-12T19:54:09.595Z,90.00
2022-08-12T19:56:50.632Z,90.10
2022-08-12T19:59:43.086Z,90.30
2022-08-12T20:02:33.171Z,90.40
2022-08-12T20:06:03.173Z,90.60
2022-08-12T20:07:59.416Z,90.60
2022-08-12T20:10:35.330Z,90.70
2022-08-12T20:13:18.672Z,90.90
2022-08-12T20:15:59.642Z,90.90
2022-08-12T20:18:44.268Z,91.10
2022-08-12T20:21:25.334Z,91.20
2022-08-12T20:24:01.039Z,91.30
2022-08-12T20:26:29.969Z,91.40
2022-08-12T20:29:00.431Z,91.60
2022-08-12T20:31:35.730Z,91.70
2022-08-12T20:34:13.554Z,91.80
2022-08-12T20:36:45.024Z,91.80
2022-08-12T20:39:53.723Z,91.90
2022-08-12T20:42:25.704Z,92.10
2022-08-12T20:45:25.931Z,92.20
2022-08-12T20:48:04.430Z,92.30
2022-08-12T20:50:36.506Z,92.40
2022-08-12T20:53:07.556Z,92.60
2022-08-12T20:55:47.020Z,92.60
2022-08-12T20:58:40.055Z,92.70
2022-08-12T21:01:11.356Z,92.80
2022-08-12T21:04:07.510Z,92.80
2022-08-12T21:07:08.415Z,92.90
2022-08-12T21:09:42.149Z,92.90
2022-08-12T21:12:28.527Z,93.00
2022-08-12T21:15:17.555Z,93.00
2022-08-12T21:18:11.031Z,93.20
2022-08-12T21:20:53.105Z,93.10
2022-08-12T21:23:25.458Z,93.10
2022-08-12T21:26:01.151Z,93.20
2022-08-12T21:28:31.670Z,93.30
2022-08-12T21:32:35.152Z,93.30
2022-08-12T21:34:07.521Z,93.40
2022-08-12T21:36:40.010Z,93.40
2022-08-12T21:39:20.770Z,93.50
2022-08-12T21:41:52.579Z,93.50
2022-08-12T21:44:24.851Z,93.60
2022-08-12T21:47:20.379Z,93.60
2022-08-12T21:50:02.958Z,93.70
2022-08-12T21:52:36.527Z,93.70
2022-08-12T21:55:18.019Z,93.80
2022-08-12T21:57:54.008Z,94.00
2022-08-12T22:00:32.907Z,94.10
2022-08-12T22:04:01.661Z,94.10
2022-08-12T22:06:30.502Z,94.30
2022-08-12T22:09:15.409Z,94.30
2022-08-12T22:11:49.065Z,94.30
2022-08-12T22:14:25.112Z,94.20
2022-08-12T22:16:55.692Z,94.30
2022-08-12T22:19:24.653Z,94.30
2022-08-12T22:21:58.540Z,94.60
2022-08-12T22:24:30.344Z,94.60
2022-08-12T22:27:07.946Z,94.90
2022-08-12T22:30:07.576Z,94.70
2022-08-12T22:32:41.902Z,94.80
2022-08-12T22:35:29.128Z,94.90
2022-08-12T22:38:10.817Z,94.90
2022-08-12T22:40:40.479Z,95.00
2022-08-12T22:43:31.467Z,95.00
2022-08-12T22:46:23.420Z,95.10
2022-08-12T22:48:55.957Z,95.30
2022-08-12T22:51:25.048Z,95.40
2022-08-12T22:53:55.181Z,95.40
2022-08-12T22:56:31.475Z,95.60
2022-08-12T22:59:03.058Z,95.50
2022-08-12T23:01:52.444Z,95.70
2022-08-12T23:04:27.821Z,95.60
2022-08-12T23:07:00.114Z,95.90
2022-08-12T23:09:48.156Z,95.80
2022-08-12T23:12:46.958Z,95.90
2022-08-12T23:15:17.807Z,96.00
2022-08-12T23:17:47.573Z,96.00
2022-08-12T23:20:16.065Z,96.10
2022-08-12T23:23:08.878Z,96.10
2022-08-12T23:25:55.153Z,96.20
2022-08-12T23:28:38.821Z,96.30
2022-08-12T23:31:12.040Z,96.30
2022-08-12T23:34:02.260Z,96.50
2022-08-12T23:36:39.402Z,96.80
2022-08-12T23:40:06.772Z,96.60
2022-08-12T23:42:16.984Z,96.80
2022-08-12T23:44:53.306Z,96.90
2022-08-12T23:47:23.445Z,96.90
2022-08-12T23:49:57.295Z,97.10
2022-08-12T23:52:34.572Z,97.00
2022-08-12T23:55:23.705Z,97.20
2022-08-12T23:58:21.077Z,97.40
